aviador You're here:

OMSJ Decoded Metar

SHARJAH in UNITED ARAB EMIRATES
Report Time2018-05-26 17:00:00
UTC Time2018-05-26 17:24:03
Flight Rules vfr VFR
Wind360° at 02 kt
W.Decomp.*RWY 30: 1.0 kt HW 1.7 kt RCW
Visibility9999 m
Phenomena:N/A
Clouds:N/A
Expected CloudBase > 4,400 ft AGL from Temp-Dew spread
CeilingNone
Temp33°C (ISA +18)
Dew Point22°C (52% RH)
Heat Index36.9°C
QNH1006 hPa
Density Alt2,766 ft
Elevation108 ft
Report Wrong Elevation
Raw Report
METAR OMSJ 261700Z 36002KT CAVOK 33/22 Q1006=

Extra information for OMSJ:More info

Metar Taf Metar & Taf Last 4 Metars F.Rules Stats Wind Profile Meteogram Temp Stats Airport Information Weather charts Add Link Nearby VenuesMetar ALERT Operation Metar Decoded Social comments